createdAt,value
2019-03-20T00:01:23.190Z,1.79
2019-03-20T00:12:01.297Z,1.77
2019-03-20T00:22:39.612Z,1.63
2019-03-20T00:33:10.263Z,1.50
2019-03-20T00:43:44.156Z,1.34
2019-03-20T00:54:19.014Z,1.25
2019-03-20T01:04:52.968Z,1.24
2019-03-20T01:15:24.838Z,1.13
2019-03-20T01:25:56.450Z,0.96
2019-03-20T01:36:35.133Z,0.95
2019-03-20T01:47:14.025Z,0.99
2019-03-20T01:57:44.925Z,0.91
2019-03-20T02:08:23.190Z,0.79
2019-03-20T02:18:56.947Z,0.85
2019-03-20T02:29:36.245Z,0.82
2019-03-20T02:40:17.359Z,0.79
2019-03-20T02:50:59.634Z,0.64
2019-03-20T03:01:43.484Z,0.62
2019-03-20T03:12:23.461Z,0.52
2019-03-20T03:23:07.798Z,0.46
2019-03-20T03:33:49.238Z,0.31
2019-03-20T03:44:29.905Z,0.11
2019-03-20T03:55:12.553Z,0.07
2019-03-20T04:05:47.433Z,0.11
2019-03-20T04:07:00.887Z,0.15
2019-03-20T04:17:42.649Z,0.20
2019-03-20T04:28:24.115Z,0.10
2019-03-20T04:39:06.270Z,-0.02
2019-03-20T04:49:46.003Z,-0.04
2019-03-20T05:00:26.459Z,-0.04
2019-03-20T05:11:10.098Z,-0.12
2019-03-20T05:21:52.967Z,-0.10
2019-03-20T05:32:35.764Z,-0.22
2019-03-20T05:43:18.240Z,-0.24
2019-03-20T05:54:02.238Z,-0.20
2019-03-20T06:04:45.606Z,-0.02
2019-03-20T06:15:27.049Z,0.17
2019-03-20T06:26:08.928Z,0.39
2019-03-20T06:36:52.328Z,0.67
2019-03-20T06:47:34.449Z,1.10
2019-03-20T06:58:12.434Z,1.58
2019-03-20T07:08:54.450Z,1.98
2019-03-20T07:19:41.635Z,2.41
2019-03-20T07:30:24.285Z,2.85
2019-03-20T07:41:09.029Z,3.42
2019-03-20T07:51:55.089Z,3.88
2019-03-20T08:02:40.250Z,4.46
2019-03-20T08:13:25.743Z,4.91
2019-03-20T08:24:11.081Z,5.92
2019-03-20T08:34:57.146Z,6.81
2019-03-20T08:45:37.519Z,7.01
2019-03-20T08:56:22.940Z,7.44
2019-03-20T09:07:07.514Z,7.63
2019-03-20T09:17:51.011Z,8.04
2019-03-20T09:28:35.714Z,8.63
2019-03-20T09:39:24.303Z,9.05
2019-03-20T09:50:12.310Z,9.40
2019-03-20T10:00:54.048Z,9.95
2019-03-20T10:11:38.074Z,10.30
2019-03-20T10:22:24.991Z,10.67
2019-03-20T10:33:11.178Z,11.06
2019-03-20T10:43:53.151Z,11.52
2019-03-20T10:54:32.424Z,11.98
2019-03-20T11:05:10.961Z,12.28
2019-03-20T11:15:54.965Z,12.66
2019-03-20T11:26:41.394Z,13.11
2019-03-20T11:37:14.503Z,13.15
2019-03-20T11:47:57.211Z,13.77
2019-03-20T11:58:40.023Z,14.15
2019-03-20T12:09:25.053Z,13.95
2019-03-20T12:20:04.402Z,13.84
2019-03-20T12:30:44.049Z,14.48
2019-03-20T12:41:24.124Z,14.96
2019-03-20T12:52:03.498Z,14.78
2019-03-20T13:02:48.136Z,14.71
2019-03-20T13:13:28.149Z,15.07
2019-03-20T13:24:11.063Z,15.77
2019-03-20T13:34:49.121Z,16.00
2019-03-20T13:45:34.976Z,15.39
2019-03-20T13:56:23.267Z,15.12
2019-03-20T18:18:59.241Z,11.41
2019-03-20T18:29:34.990Z,11.03
2019-03-20T18:40:11.627Z,10.60
2019-03-20T18:50:50.933Z,10.12
2019-03-20T19:01:32.775Z,9.61
2019-03-20T19:12:09.391Z,9.00
2019-03-20T19:22:50.324Z,8.86
2019-03-20T19:33:26.467Z,8.67
2019-03-20T19:44:07.844Z,8.28
2019-03-20T19:54:46.201Z,8.13
2019-03-20T20:05:25.694Z,7.95
2019-03-20T20:15:58.175Z,7.64
2019-03-20T20:26:34.623Z,7.58
2019-03-20T20:37:13.865Z,7.40
2019-03-20T20:47:55.159Z,7.17
2019-03-20T20:58:32.387Z,6.93
2019-03-20T21:09:11.579Z,6.77
2019-03-20T21:19:48.408Z,6.54
2019-03-20T21:30:27.336Z,6.31
2019-03-20T21:41:06.909Z,6.18
2019-03-20T21:51:46.363Z,6.06
2019-03-20T22:02:19.696Z,5.78
2019-03-20T22:12:53.705Z,5.63
2019-03-20T22:23:26.004Z,5.44
2019-03-20T22:34:10.884Z,5.35
2019-03-20T22:44:52.867Z,5.23
2019-03-20T22:55:37.022Z,5.11
2019-03-20T23:06:21.258Z,5.02
2019-03-20T23:16:56.536Z,4.88
2019-03-20T23:27:40.843Z,4.73
2019-03-20T23:38:23.595Z,4.60
2019-03-20T23:49:07.456Z,4.51
2019-03-20T23:59:51.019Z,4.49
